sensor_id;sensor_type;location;lat;lon;timestamp;P1;durP1;ratioP1;P2;durP2;ratioP2
6344;SDS011;3205;42.666;23.264;2023-05-10T00:00:51;14.80;;;8.70;;
6344;SDS011;3205;42.666;23.264;2023-05-10T00:03:17;18.27;;;11.33;;
6344;SDS011;3205;42.666;23.264;2023-05-10T00:05:43;14.17;;;10.00;;
6344;SDS011;3205;42.666;23.264;2023-05-10T00:08:10;16.30;;;10.93;;
6344;SDS011;3205;42.666;23.264;2023-05-10T00:10:36;13.10;;;10.17;;
6344;SDS011;3205;42.666;23.264;2023-05-10T00:13:02;19.10;;;11.67;;
6344;SDS011;3205;42.666;23.264;2023-05-10T00:15:29;14.23;;;9.87;;
6344;SDS011;3205;42.666;23.264;2023-05-10T00:17:55;13.33;;;10.07;;
6344;SDS011;3205;42.666;23.264;2023-05-10T00:20:22;13.90;;;9.73;;
6344;SDS011;3205;42.666;23.264;2023-05-10T00:22:48;39.03;;;13.90;;
6344;SDS011;3205;42.666;23.264;2023-05-10T00:25:14;15.30;;;11.40;;
6344;SDS011;3205;42.666;23.264;2023-05-10T00:27:40;17.00;;;11.40;;
6344;SDS011;3205;42.666;23.264;2023-05-10T00:30:07;16.70;;;11.00;;
6344;SDS011;3205;42.666;23.264;2023-05-10T00:32:34;14.43;;;10.63;;
6344;SDS011;3205;42.666;23.264;2023-05-10T00:35:00;15.50;;;11.03;;
6344;SDS011;3205;42.666;23.264;2023-05-10T00:37:27;15.37;;;10.40;;
6344;SDS011;3205;42.666;23.264;2023-05-10T00:39:53;17.87;;;11.27;;
6344;SDS011;3205;42.666;23.264;2023-05-10T00:42:19;17.23;;;11.80;;
6344;SDS011;3205;42.666;23.264;2023-05-10T00:44:45;15.70;;;10.07;;
6344;SDS011;3205;42.666;23.264;2023-05-10T00:47:11;15.23;;;11.10;;
6344;SDS011;3205;42.666;23.264;2023-05-10T00:49:38;18.60;;;11.30;;
6344;SDS011;3205;42.666;23.264;2023-05-10T00:52:06;12.30;;;9.30;;
6344;SDS011;3205;42.666;23.264;2023-05-10T00:54:32;15.60;;;11.63;;
6344;SDS011;3205;42.666;23.264;2023-05-10T00:56:58;16.70;;;12.70;;
6344;SDS011;3205;42.666;23.264;2023-05-10T00:59:25;20.97;;;13.17;;
6344;SDS011;3205;42.666;23.264;2023-05-10T01:01:51;11.47;;;9.00;;
6344;SDS011;3205;42.666;23.264;2023-05-10T01:04:17;19.37;;;11.70;;
6344;SDS011;3205;42.666;23.264;2023-05-10T01:06:45;15.70;;;12.67;;
6344;SDS011;3205;42.666;23.264;2023-05-10T01:09:11;16.80;;;12.20;;
6344;SDS011;3205;42.666;23.264;2023-05-10T01:11:38;14.73;;;11.60;;
6344;SDS011;3205;42.666;23.264;2023-05-10T01:14:05;17.20;;;11.50;;
6344;SDS011;3205;42.666;23.264;2023-05-10T01:16:32;17.13;;;12.90;;
6344;SDS011;3205;42.666;23.264;2023-05-10T01:19:01;16.80;;;10.07;;
6344;SDS011;3205;42.666;23.264;2023-05-10T01:21:32;17.93;;;13.47;;
6344;SDS011;3205;42.666;23.264;2023-05-10T01:24:19;20.33;;;14.23;;
6344;SDS011;3205;42.666;23.264;2023-05-10T01:27:20;16.07;;;12.13;;
6344;SDS011;3205;42.666;23.264;2023-05-10T01:30:05;18.93;;;13.47;;
6344;SDS011;3205;42.666;23.264;2023-05-10T01:32:41;18.63;;;12.53;;
6344;SDS011;3205;42.666;23.264;2023-05-10T01:35:16;20.47;;;12.47;;
6344;SDS011;3205;42.666;23.264;2023-05-10T01:37:59;16.67;;;12.50;;
6344;SDS011;3205;42.666;23.264;2023-05-10T01:40:32;15.60;;;12.47;;
6344;SDS011;3205;42.666;23.264;2023-05-10T01:43:03;16.60;;;12.30;;
6344;SDS011;3205;42.666;23.264;2023-05-10T01:45:34;16.50;;;12.27;;
6344;SDS011;3205;42.666;23.264;2023-05-10T01:48:06;13.83;;;11.10;;
6344;SDS011;3205;42.666;23.264;2023-05-10T01:50:36;12.27;;;10.10;;
6344;SDS011;3205;42.666;23.264;2023-05-10T01:53:06;10.27;;;9.13;;
6344;SDS011;3205;42.666;23.264;2023-05-10T01:55:35;14.70;;;9.90;;
6344;SDS011;3205;42.666;23.264;2023-05-10T01:58:08;12.70;;;9.70;;
6344;SDS011;3205;42.666;23.264;2023-05-10T02:00:39;15.07;;;10.83;;
6344;SDS011;3205;42.666;23.264;2023-05-10T02:03:09;9.77;;;8.63;;
6344;SDS011;3205;42.666;23.264;2023-05-10T02:05:37;13.27;;;9.37;;
6344;SDS011;3205;42.666;23.264;2023-05-10T02:08:06;9.77;;;8.73;;
6344;SDS011;3205;42.666;23.264;2023-05-10T02:10:33;10.23;;;8.77;;
6344;SDS011;3205;42.666;23.264;2023-05-10T02:13:00;11.67;;;8.63;;
6344;SDS011;3205;42.666;23.264;2023-05-10T02:15:28;9.13;;;8.17;;
6344;SDS011;3205;42.666;23.264;2023-05-10T02:17:56;12.67;;;9.07;;
6344;SDS011;3205;42.666;23.264;2023-05-10T02:20:26;10.27;;;8.53;;
6344;SDS011;3205;42.666;23.264;2023-05-10T02:22:54;7.40;;;6.03;;
6344;SDS011;3205;42.666;23.264;2023-05-10T02:25:21;10.53;;;7.40;;
6344;SDS011;3205;42.666;23.264;2023-05-10T02:27:49;10.23;;;8.67;;
6344;SDS011;3205;42.666;23.264;2023-05-10T02:30:19;6.60;;;5.40;;
6344;SDS011;3205;42.666;23.264;2023-05-10T02:32:46;7.73;;;6.70;;
6344;SDS011;3205;42.666;23.264;2023-05-10T02:35:14;18.27;;;8.00;;
6344;SDS011;3205;42.666;23.264;2023-05-10T02:37:42;10.00;;;7.43;;
6344;SDS011;3205;42.666;23.264;2023-05-10T02:40:10;10.90;;;8.07;;
6344;SDS011;3205;42.666;23.264;2023-05-10T02:42:38;8.70;;;6.00;;
6344;SDS011;3205;42.666;23.264;2023-05-10T02:45:10;8.90;;;6.37;;
6344;SDS011;3205;42.666;23.264;2023-05-10T02:47:38;8.33;;;6.90;;
6344;SDS011;3205;42.666;23.264;2023-05-10T02:50:05;8.77;;;7.43;;
6344;SDS011;3205;42.666;23.264;2023-05-10T02:52:36;8.00;;;6.27;;
6344;SDS011;3205;42.666;23.264;2023-05-10T02:55:07;7.63;;;5.97;;
6344;SDS011;3205;42.666;23.264;2023-05-10T02:57:38;9.13;;;8.13;;
6344;SDS011;3205;42.666;23.264;2023-05-10T03:00:07;13.53;;;7.93;;
6344;SDS011;3205;42.666;23.264;2023-05-10T03:02:34;11.30;;;7.70;;
6344;SDS011;3205;42.666;23.264;2023-05-10T03:05:01;11.73;;;7.90;;
6344;SDS011;3205;42.666;23.264;2023-05-10T03:07:28;11.37;;;7.63;;
6344;SDS011;3205;42.666;23.264;2023-05-10T03:09:55;10.07;;;7.70;;
6344;SDS011;3205;42.666;23.264;2023-05-10T03:12:23;11.80;;;8.43;;
6344;SDS011;3205;42.666;23.264;2023-05-10T03:14:57;9.87;;;7.80;;
6344;SDS011;3205;42.666;23.264;2023-05-10T03:17:30;11.67;;;9.00;;
6344;SDS011;3205;42.666;23.264;2023-05-10T03:20:03;10.63;;;8.47;;
6344;SDS011;3205;42.666;23.264;2023-05-10T03:22:36;11.70;;;8.70;;
6344;SDS011;3205;42.666;23.264;2023-05-10T03:25:04;11.73;;;8.03;;
6344;SDS011;3205;42.666;23.264;2023-05-10T03:27:32;9.77;;;8.70;;
6344;SDS011;3205;42.666;23.264;2023-05-10T03:30:01;12.20;;;8.13;;
6344;SDS011;3205;42.666;23.264;2023-05-10T03:32:28;11.43;;;7.63;;
6344;SDS011;3205;42.666;23.264;2023-05-10T03:34:56;14.27;;;7.73;;
6344;SDS011;3205;42.666;23.264;2023-05-10T03:37:23;11.57;;;7.90;;
6344;SDS011;3205;42.666;23.264;2023-05-10T03:39:49;11.33;;;7.97;;
6344;SDS011;3205;42.666;23.264;2023-05-10T03:42:15;10.90;;;7.90;;
6344;SDS011;3205;42.666;23.264;2023-05-10T03:44:43;12.00;;;8.00;;
6344;SDS011;3205;42.666;23.264;2023-05-10T03:47:09;8.67;;;7.50;;
6344;SDS011;3205;42.666;23.264;2023-05-10T03:49:35;8.90;;;7.80;;
6344;SDS011;3205;42.666;23.264;2023-05-10T03:52:01;7.77;;;6.93;;
6344;SDS011;3205;42.666;23.264;2023-05-10T03:54:27;9.13;;;6.93;;
6344;SDS011;3205;42.666;23.264;2023-05-10T03:56:53;10.33;;;6.70;;
6344;SDS011;3205;42.666;23.264;2023-05-10T03:59:19;9.60;;;6.03;;
6344;SDS011;3205;42.666;23.264;2023-05-10T04:01:46;6.90;;;6.03;;
6344;SDS011;3205;42.666;23.264;2023-05-10T04:04:12;6.40;;;5.80;;
6344;SDS011;3205;42.666;23.264;2023-05-10T04:06:38;6.50;;;5.60;;
6344;SDS011;3205;42.666;23.264;2023-05-10T04:09:04;10.13;;;5.93;;
6344;SDS011;3205;42.666;23.264;2023-05-10T04:11:31;7.13;;;5.40;;
6344;SDS011;3205;42.666;23.264;2023-05-10T04:13:57;7.40;;;5.43;;
6344;SDS011;3205;42.666;23.264;2023-05-10T04:16:23;6.07;;;5.47;;
6344;SDS011;3205;42.666;23.264;2023-05-10T04:18:50;9.30;;;6.30;;
6344;SDS011;3205;42.666;23.264;2023-05-10T04:21:16;11.00;;;5.40;;
6344;SDS011;3205;42.666;23.264;2023-05-10T04:23:43;7.40;;;6.67;;
6344;SDS011;3205;42.666;23.264;2023-05-10T04:26:09;9.73;;;6.40;;
6344;SDS011;3205;42.666;23.264;2023-05-10T04:28:35;8.23;;;5.77;;
6344;SDS011;3205;42.666;23.264;2023-05-10T04:31:02;8.40;;;6.23;;
6344;SDS011;3205;42.666;23.264;2023-05-10T04:33:28;6.70;;;5.33;;
6344;SDS011;3205;42.666;23.264;2023-05-10T04:35:55;6.40;;;5.80;;
6344;SDS011;3205;42.666;23.264;2023-05-10T04:38:21;9.03;;;6.47;;
6344;SDS011;3205;42.666;23.264;2023-05-10T04:40:47;8.57;;;6.20;;
6344;SDS011;3205;42.666;23.264;2023-05-10T04:43:13;7.87;;;5.80;;
6344;SDS011;3205;42.666;23.264;2023-05-10T04:45:40;7.03;;;5.37;;
6344;SDS011;3205;42.666;23.264;2023-05-10T04:48:06;9.33;;;5.37;;
6344;SDS011;3205;42.666;23.264;2023-05-10T04:50:32;6.87;;;5.53;;
6344;SDS011;3205;42.666;23.264;2023-05-10T04:52:59;10.50;;;6.23;;
6344;SDS011;3205;42.666;23.264;2023-05-10T04:55:25;6.60;;;5.90;;
6344;SDS011;3205;42.666;23.264;2023-05-10T04:57:52;5.57;;;5.07;;
6344;SDS011;3205;42.666;23.264;2023-05-10T05:00:22;9.57;;;7.33;;
6344;SDS011;3205;42.666;23.264;2023-05-10T05:02:48;9.07;;;6.77;;
6344;SDS011;3205;42.666;23.264;2023-05-10T05:05:14;8.67;;;7.33;;
6344;SDS011;3205;42.666;23.264;2023-05-10T05:07:40;10.13;;;6.77;;
6344;SDS011;3205;42.666;23.264;2023-05-10T05:10:08;8.00;;;6.53;;
6344;SDS011;3205;42.666;23.264;2023-05-10T05:12:34;7.97;;;6.27;;
6344;SDS011;3205;42.666;23.264;2023-05-10T05:15:01;8.80;;;6.63;;
6344;SDS011;3205;42.666;23.264;2023-05-10T05:17:29;7.87;;;6.53;;
6344;SDS011;3205;42.666;23.264;2023-05-10T05:19:56;7.37;;;5.77;;
6344;SDS011;3205;42.666;23.264;2023-05-10T05:22:22;14.00;;;6.90;;
6344;SDS011;3205;42.666;23.264;2023-05-10T05:24:52;11.67;;;7.40;;
6344;SDS011;3205;42.666;23.264;2023-05-10T05:27:19;8.57;;;6.70;;
6344;SDS011;3205;42.666;23.264;2023-05-10T05:29:46;8.43;;;6.60;;
6344;SDS011;3205;42.666;23.264;2023-05-10T05:32:12;8.90;;;6.00;;
6344;SDS011;3205;42.666;23.264;2023-05-10T05:34:38;10.17;;;7.57;;
6344;SDS011;3205;42.666;23.264;2023-05-10T05:37:04;8.30;;;7.37;;
6344;SDS011;3205;42.666;23.264;2023-05-10T05:39:30;9.67;;;7.23;;
6344;SDS011;3205;42.666;23.264;2023-05-10T05:41:56;10.87;;;7.40;;
6344;SDS011;3205;42.666;23.264;2023-05-10T05:44:24;11.93;;;8.57;;
6344;SDS011;3205;42.666;23.264;2023-05-10T05:46:50;11.80;;;8.93;;
6344;SDS011;3205;42.666;23.264;2023-05-10T05:49:16;10.77;;;8.90;;
6344;SDS011;3205;42.666;23.264;2023-05-10T05:51:42;13.03;;;9.80;;
6344;SDS011;3205;42.666;23.264;2023-05-10T05:54:09;11.00;;;8.17;;
6344;SDS011;3205;42.666;23.264;2023-05-10T05:56:35;12.97;;;8.03;;
6344;SDS011;3205;42.666;23.264;2023-05-10T05:59:02;13.60;;;9.43;;
6344;SDS011;3205;42.666;23.264;2023-05-10T06:01:29;10.73;;;8.87;;
6344;SDS011;3205;42.666;23.264;2023-05-10T06:03:55;16.50;;;9.23;;
6344;SDS011;3205;42.666;23.264;2023-05-10T06:06:21;12.43;;;9.27;;
6344;SDS011;3205;42.666;23.264;2023-05-10T06:08:47;19.00;;;11.03;;
6344;SDS011;3205;42.666;23.264;2023-05-10T06:11:13;12.63;;;8.07;;
6344;SDS011;3205;42.666;23.264;2023-05-10T06:13:39;13.23;;;8.50;;
6344;SDS011;3205;42.666;23.264;2023-05-10T06:16:06;14.37;;;9.47;;
6344;SDS011;3205;42.666;23.264;2023-05-10T06:18:32;12.47;;;10.07;;
6344;SDS011;3205;42.666;23.264;2023-05-10T06:20:58;17.20;;;10.47;;
6344;SDS011;3205;42.666;23.264;2023-05-10T06:23:25;17.13;;;11.13;;
6344;SDS011;3205;42.666;23.264;2023-05-10T06:25:51;16.70;;;11.23;;
6344;SDS011;3205;42.666;23.264;2023-05-10T06:28:17;15.30;;;10.67;;
6344;SDS011;3205;42.666;23.264;2023-05-10T06:30:43;12.43;;;9.43;;
6344;SDS011;3205;42.666;23.264;2023-05-10T06:33:09;12.70;;;8.50;;
6344;SDS011;3205;42.666;23.264;2023-05-10T06:35:36;16.80;;;11.23;;
6344;SDS011;3205;42.666;23.264;2023-05-10T06:38:02;14.90;;;12.07;;
6344;SDS011;3205;42.666;23.264;2023-05-10T06:40:28;12.13;;;8.50;;
6344;SDS011;3205;42.666;23.264;2023-05-10T06:42:54;11.73;;;8.27;;
6344;SDS011;3205;42.666;23.264;2023-05-10T06:45:20;13.17;;;8.60;;
6344;SDS011;3205;42.666;23.264;2023-05-10T06:47:46;14.53;;;9.10;;
6344;SDS011;3205;42.666;23.264;2023-05-10T06:50:13;12.67;;;10.13;;
6344;SDS011;3205;42.666;23.264;2023-05-10T06:52:39;14.30;;;8.67;;
6344;SDS011;3205;42.666;23.264;2023-05-10T06:55:06;12.37;;;10.10;;
6344;SDS011;3205;42.666;23.264;2023-05-10T06:57:33;11.30;;;8.90;;
6344;SDS011;3205;42.666;23.264;2023-05-10T06:59:59;8.70;;;6.87;;
6344;SDS011;3205;42.666;23.264;2023-05-10T07:02:25;13.13;;;10.07;;
6344;SDS011;3205;42.666;23.264;2023-05-10T07:04:52;14.60;;;9.10;;
6344;SDS011;3205;42.666;23.264;2023-05-10T07:07:18;7.40;;;5.93;;
6344;SDS011;3205;42.666;23.264;2023-05-10T07:09:45;8.97;;;7.67;;
6344;SDS011;3205;42.666;23.264;2023-05-10T07:12:11;12.30;;;8.37;;
6344;SDS011;3205;42.666;23.264;2023-05-10T07:14:37;15.93;;;10.50;;
6344;SDS011;3205;42.666;23.264;2023-05-10T07:17:03;15.77;;;9.13;;
6344;SDS011;3205;42.666;23.264;2023-05-10T07:19:30;11.13;;;8.63;;
6344;SDS011;3205;42.666;23.264;2023-05-10T07:21:57;11.87;;;8.33;;
6344;SDS011;3205;42.666;23.264;2023-05-10T07:24:23;12.30;;;8.53;;
6344;SDS011;3205;42.666;23.264;2023-05-10T07:26:51;14.87;;;8.07;;
6344;SDS011;3205;42.666;23.264;2023-05-10T07:29:17;15.80;;;10.53;;
6344;SDS011;3205;42.666;23.264;2023-05-10T07:31:43;13.63;;;10.23;;
6344;SDS011;3205;42.666;23.264;2023-05-10T07:34:09;9.70;;;7.17;;
6344;SDS011;3205;42.666;23.264;2023-05-10T07:36:35;14.73;;;8.77;;
6344;SDS011;3205;42.666;23.264;2023-05-10T07:39:02;13.13;;;9.43;;
6344;SDS011;3205;42.666;23.264;2023-05-10T07:41:28;13.43;;;9.03;;
6344;SDS011;3205;42.666;23.264;2023-05-10T07:43:55;10.10;;;8.00;;
6344;SDS011;3205;42.666;23.264;2023-05-10T07:46:21;12.57;;;9.00;;
6344;SDS011;3205;42.666;23.264;2023-05-10T07:48:47;15.20;;;10.53;;
6344;SDS011;3205;42.666;23.264;2023-05-10T07:51:13;12.87;;;9.90;;
6344;SDS011;3205;42.666;23.264;2023-05-10T07:53:39;11.87;;;7.83;;
6344;SDS011;3205;42.666;23.264;2023-05-10T07:56:19;13.60;;;10.07;;
6344;SDS011;3205;42.666;23.264;2023-05-10T07:58:47;18.97;;;10.90;;
6344;SDS011;3205;42.666;23.264;2023-05-10T08:01:14;12.03;;;8.63;;
6344;SDS011;3205;42.666;23.264;2023-05-10T08:03:40;15.67;;;10.60;;
6344;SDS011;3205;42.666;23.264;2023-05-10T08:06:06;18.10;;;11.17;;
6344;SDS011;3205;42.666;23.264;2023-05-10T08:08:32;14.07;;;9.27;;
6344;SDS011;3205;42.666;23.264;2023-05-10T08:10:58;11.83;;;8.03;;
6344;SDS011;3205;42.666;23.264;2023-05-10T08:13:24;16.33;;;10.93;;
6344;SDS011;3205;42.666;23.264;2023-05-10T08:15:51;18.47;;;10.57;;
6344;SDS011;3205;42.666;23.264;2023-05-10T08:18:18;13.43;;;9.53;;
6344;SDS011;3205;42.666;23.264;2023-05-10T08:20:45;16.63;;;9.90;;
6344;SDS011;3205;42.666;23.264;2023-05-10T08:23:11;13.60;;;7.93;;
6344;SDS011;3205;42.666;23.264;2023-05-10T08:25:38;12.83;;;8.50;;
6344;SDS011;3205;42.666;23.264;2023-05-10T08:28:04;13.30;;;8.77;;
6344;SDS011;3205;42.666;23.264;2023-05-10T08:30:30;13.07;;;9.10;;
6344;SDS011;3205;42.666;23.264;2023-05-10T08:32:56;15.40;;;10.83;;
6344;SDS011;3205;42.666;23.264;2023-05-10T08:35:23;13.37;;;10.70;;
6344;SDS011;3205;42.666;23.264;2023-05-10T08:37:50;12.83;;;9.93;;
6344;SDS011;3205;42.666;23.264;2023-05-10T08:40:16;14.10;;;8.80;;
6344;SDS011;3205;42.666;23.264;2023-05-10T08:42:49;10.97;;;8.63;;
6344;SDS011;3205;42.666;23.264;2023-05-10T08:45:20;13.27;;;9.33;;
6344;SDS011;3205;42.666;23.264;2023-05-10T08:47:48;13.23;;;9.23;;
6344;SDS011;3205;42.666;23.264;2023-05-10T08:50:15;11.70;;;8.70;;
6344;SDS011;3205;42.666;23.264;2023-05-10T08:52:43;13.67;;;10.50;;
6344;SDS011;3205;42.666;23.264;2023-05-10T08:55:12;14.03;;;10.33;;
6344;SDS011;3205;42.666;23.264;2023-05-10T08:57:39;11.43;;;8.87;;
6344;SDS011;3205;42.666;23.264;2023-05-10T09:00:05;14.13;;;10.90;;
6344;SDS011;3205;42.666;23.264;2023-05-10T09:02:33;19.17;;;11.43;;
6344;SDS011;3205;42.666;23.264;2023-05-10T09:05:00;9.20;;;7.30;;
6344;SDS011;3205;42.666;23.264;2023-05-10T09:07:28;15.73;;;10.73;;
6344;SDS011;3205;42.666;23.264;2023-05-10T09:09:54;13.87;;;10.63;;
6344;SDS011;3205;42.666;23.264;2023-05-10T09:12:22;13.33;;;9.50;;
6344;SDS011;3205;42.666;23.264;2023-05-10T09:14:49;10.57;;;8.17;;
6344;SDS011;3205;42.666;23.264;2023-05-10T09:17:17;13.83;;;10.60;;
6344;SDS011;3205;42.666;23.264;2023-05-10T09:19:44;12.57;;;10.50;;
6344;SDS011;3205;42.666;23.264;2023-05-10T09:22:11;17.87;;;11.67;;
6344;SDS011;3205;42.666;23.264;2023-05-10T09:24:37;16.50;;;11.10;;
6344;SDS011;3205;42.666;23.264;2023-05-10T09:27:08;12.80;;;10.53;;
6344;SDS011;3205;42.666;23.264;2023-05-10T09:29:41;16.33;;;9.83;;
6344;SDS011;3205;42.666;23.264;2023-05-10T09:32:07;14.30;;;10.03;;
6344;SDS011;3205;42.666;23.264;2023-05-10T09:34:33;12.47;;;9.37;;
6344;SDS011;3205;42.666;23.264;2023-05-10T09:37:01;16.97;;;11.07;;
6344;SDS011;3205;42.666;23.264;2023-05-10T09:39:32;12.90;;;9.90;;
6344;SDS011;3205;42.666;23.264;2023-05-10T09:41:59;13.63;;;10.50;;
6344;SDS011;3205;42.666;23.264;2023-05-10T09:44:29;11.53;;;9.87;;
6344;SDS011;3205;42.666;23.264;2023-05-10T09:46:56;19.57;;;10.77;;
6344;SDS011;3205;42.666;23.264;2023-05-10T09:49:22;11.93;;;9.27;;
6344;SDS011;3205;42.666;23.264;2023-05-10T09:51:57;13.80;;;8.63;;
6344;SDS011;3205;42.666;23.264;2023-05-10T09:54:25;12.33;;;8.83;;
6344;SDS011;3205;42.666;23.264;2023-05-10T09:56:51;10.33;;;8.47;;
6344;SDS011;3205;42.666;23.264;2023-05-10T09:59:18;12.83;;;9.53;;
6344;SDS011;3205;42.666;23.264;2023-05-10T10:01:49;11.00;;;8.97;;
6344;SDS011;3205;42.666;23.264;2023-05-10T10:04:15;8.57;;;7.10;;
6344;SDS011;3205;42.666;23.264;2023-05-10T10:06:42;10.60;;;8.10;;
6344;SDS011;3205;42.666;23.264;2023-05-10T10:09:09;10.87;;;8.77;;
6344;SDS011;3205;42.666;23.264;2023-05-10T10:11:35;10.77;;;9.20;;
6344;SDS011;3205;42.666;23.264;2023-05-10T10:14:02;8.33;;;6.87;;
6344;SDS011;3205;42.666;23.264;2023-05-10T10:16:29;12.83;;;10.10;;
6344;SDS011;3205;42.666;23.264;2023-05-10T10:18:56;12.67;;;10.60;;
6344;SDS011;3205;42.666;23.264;2023-05-10T10:21:22;10.43;;;8.33;;
6344;SDS011;3205;42.666;23.264;2023-05-10T10:23:49;12.77;;;9.93;;
6344;SDS011;3205;42.666;23.264;2023-05-10T10:26:15;11.23;;;8.60;;
6344;SDS011;3205;42.666;23.264;2023-05-10T10:28:45;9.87;;;8.37;;
6344;SDS011;3205;42.666;23.264;2023-05-10T10:31:18;12.33;;;9.40;;
6344;SDS011;3205;42.666;23.264;2023-05-10T10:33:56;11.73;;;8.23;;
6344;SDS011;3205;42.666;23.264;2023-05-10T10:36:26;16.73;;;10.77;;
6344;SDS011;3205;42.666;23.264;2023-05-10T10:38:56;9.87;;;7.03;;
6344;SDS011;3205;42.666;23.264;2023-05-10T10:41:32;12.70;;;7.40;;
6344;SDS011;3205;42.666;23.264;2023-05-10T10:47:01;7.63;;;6.83;;
6344;SDS011;3205;42.666;23.264;2023-05-10T10:49:37;13.47;;;8.40;;
6344;SDS011;3205;42.666;23.264;2023-05-10T10:52:23;10.37;;;7.43;;
6344;SDS011;3205;42.666;23.264;2023-05-10T10:54:57;11.07;;;7.80;;
6344;SDS011;3205;42.666;23.264;2023-05-10T10:57:25;12.83;;;7.13;;
6344;SDS011;3205;42.666;23.264;2023-05-10T10:59:53;15.37;;;8.67;;
6344;SDS011;3205;42.666;23.264;2023-05-10T11:02:37;8.37;;;6.90;;
6344;SDS011;3205;42.666;23.264;2023-05-10T11:08:09;12.23;;;8.77;;
6344;SDS011;3205;42.666;23.264;2023-05-10T11:10:37;15.03;;;8.50;;
6344;SDS011;3205;42.666;23.264;2023-05-10T11:13:04;9.80;;;7.43;;
6344;SDS011;3205;42.666;23.264;2023-05-10T11:15:32;8.93;;;7.37;;
6344;SDS011;3205;42.666;23.264;2023-05-10T11:18:00;11.27;;;7.67;;
6344;SDS011;3205;42.666;23.264;2023-05-10T11:20:43;8.87;;;7.07;;
6344;SDS011;3205;42.666;23.264;2023-05-10T11:23:11;10.60;;;8.60;;
6344;SDS011;3205;42.666;23.264;2023-05-10T11:25:41;12.07;;;8.90;;
6344;SDS011;3205;42.666;23.264;2023-05-10T11:28:08;12.00;;;8.57;;
6344;SDS011;3205;42.666;23.264;2023-05-10T11:30:34;9.43;;;6.63;;
6344;SDS011;3205;42.666;23.264;2023-05-10T11:33:01;9.93;;;7.27;;
6344;SDS011;3205;42.666;23.264;2023-05-10T11:35:27;7.90;;;7.10;;
6344;SDS011;3205;42.666;23.264;2023-05-10T11:37:54;8.17;;;7.33;;
6344;SDS011;3205;42.666;23.264;2023-05-10T11:40:21;9.90;;;7.23;;
6344;SDS011;3205;42.666;23.264;2023-05-10T11:42:49;12.47;;;8.20;;
6344;SDS011;3205;42.666;23.264;2023-05-10T11:45:15;8.37;;;7.50;;
6344;SDS011;3205;42.666;23.264;2023-05-10T11:47:41;11.00;;;9.50;;
6344;SDS011;3205;42.666;23.264;2023-05-10T11:50:08;12.60;;;8.37;;
6344;SDS011;3205;42.666;23.264;2023-05-10T11:52:36;12.13;;;8.27;;
6344;SDS011;3205;42.666;23.264;2023-05-10T11:55:03;21.63;;;10.90;;
6344;SDS011;3205;42.666;23.264;2023-05-10T11:57:30;14.20;;;8.00;;
6344;SDS011;3205;42.666;23.264;2023-05-10T11:59:56;15.13;;;9.07;;
6344;SDS011;3205;42.666;23.264;2023-05-10T12:02:23;12.80;;;8.87;;
6344;SDS011;3205;42.666;23.264;2023-05-10T12:04:49;10.23;;;7.93;;
6344;SDS011;3205;42.666;23.264;2023-05-10T12:07:16;12.07;;;8.40;;
6344;SDS011;3205;42.666;23.264;2023-05-10T12:09:42;14.10;;;9.07;;
6344;SDS011;3205;42.666;23.264;2023-05-10T12:12:09;14.10;;;9.27;;
6344;SDS011;3205;42.666;23.264;2023-05-10T12:14:36;8.10;;;7.30;;
6344;SDS011;3205;42.666;23.264;2023-05-10T12:17:02;9.90;;;7.07;;
6344;SDS011;3205;42.666;23.264;2023-05-10T12:19:28;7.77;;;6.70;;
6344;SDS011;3205;42.666;23.264;2023-05-10T12:22:04;9.17;;;7.70;;
6344;SDS011;3205;42.666;23.264;2023-05-10T12:24:30;17.60;;;9.57;;
6344;SDS011;3205;42.666;23.264;2023-05-10T12:26:56;13.47;;;8.37;;
6344;SDS011;3205;42.666;23.264;2023-05-10T12:29:23;10.67;;;7.97;;
6344;SDS011;3205;42.666;23.264;2023-05-10T12:31:50;9.40;;;7.97;;
6344;SDS011;3205;42.666;23.264;2023-05-10T12:34:24;12.55;;;9.43;;
6344;SDS011;3205;42.666;23.264;2023-05-10T12:36:55;11.47;;;8.87;;
6344;SDS011;3205;42.666;23.264;2023-05-10T12:39:22;10.47;;;9.20;;
6344;SDS011;3205;42.666;23.264;2023-05-10T12:41:48;11.27;;;8.50;;
6344;SDS011;3205;42.666;23.264;2023-05-10T12:44:14;10.30;;;7.73;;
6344;SDS011;3205;42.666;23.264;2023-05-10T12:46:44;17.33;;;9.50;;
6344;SDS011;3205;42.666;23.264;2023-05-10T12:49:10;10.47;;;8.63;;
6344;SDS011;3205;42.666;23.264;2023-05-10T12:51:36;10.73;;;9.30;;
6344;SDS011;3205;42.666;23.264;2023-05-10T12:54:02;14.93;;;10.83;;
6344;SDS011;3205;42.666;23.264;2023-05-10T12:56:28;15.77;;;9.60;;
6344;SDS011;3205;42.666;23.264;2023-05-10T12:58:54;12.27;;;10.00;;
6344;SDS011;3205;42.666;23.264;2023-05-10T13:01:21;19.10;;;9.67;;
6344;SDS011;3205;42.666;23.264;2023-05-10T13:03:47;14.33;;;8.27;;
6344;SDS011;3205;42.666;23.264;2023-05-10T13:06:13;10.63;;;8.70;;
6344;SDS011;3205;42.666;23.264;2023-05-10T13:08:40;11.30;;;9.60;;
6344;SDS011;3205;42.666;23.264;2023-05-10T13:11:06;12.90;;;10.07;;
6344;SDS011;3205;42.666;23.264;2023-05-10T13:13:32;17.83;;;11.00;;
6344;SDS011;3205;42.666;23.264;2023-05-10T13:15:58;15.10;;;9.70;;
6344;SDS011;3205;42.666;23.264;2023-05-10T13:18:24;12.53;;;8.50;;
6344;SDS011;3205;42.666;23.264;2023-05-10T13:20:51;9.57;;;8.03;;
6344;SDS011;3205;42.666;23.264;2023-05-10T13:23:19;9.97;;;7.50;;
6344;SDS011;3205;42.666;23.264;2023-05-10T13:25:45;14.33;;;10.37;;
6344;SDS011;3205;42.666;23.264;2023-05-10T13:28:11;12.33;;;9.30;;
6344;SDS011;3205;42.666;23.264;2023-05-10T13:30:39;11.70;;;9.33;;
6344;SDS011;3205;42.666;23.264;2023-05-10T13:33:05;14.00;;;10.10;;
6344;SDS011;3205;42.666;23.264;2023-05-10T13:35:31;8.67;;;5.97;;
6344;SDS011;3205;42.666;23.264;2023-05-10T13:37:58;15.00;;;8.83;;
6344;SDS011;3205;42.666;23.264;2023-05-10T13:40:24;15.03;;;8.70;;
6344;SDS011;3205;42.666;23.264;2023-05-10T13:42:50;9.70;;;8.10;;
6344;SDS011;3205;42.666;23.264;2023-05-10T13:45:16;14.23;;;8.93;;
6344;SDS011;3205;42.666;23.264;2023-05-10T13:47:42;9.33;;;7.33;;
6344;SDS011;3205;42.666;23.264;2023-05-10T13:50:08;17.23;;;10.53;;
6344;SDS011;3205;42.666;23.264;2023-05-10T13:52:35;11.33;;;9.63;;
6344;SDS011;3205;42.666;23.264;2023-05-10T13:55:01;13.43;;;9.40;;
6344;SDS011;3205;42.666;23.264;2023-05-10T13:57:28;12.47;;;10.13;;
6344;SDS011;3205;42.666;23.264;2023-05-10T13:59:55;13.43;;;10.13;;
6344;SDS011;3205;42.666;23.264;2023-05-10T14:02:22;12.67;;;9.00;;
6344;SDS011;3205;42.666;23.264;2023-05-10T14:04:48;16.73;;;10.23;;
6344;SDS011;3205;42.666;23.264;2023-05-10T14:07:14;7.13;;;5.70;;
6344;SDS011;3205;42.666;23.264;2023-05-10T14:09:40;7.23;;;6.50;;
6344;SDS011;3205;42.666;23.264;2023-05-10T14:12:07;10.10;;;7.90;;
6344;SDS011;3205;42.666;23.264;2023-05-10T14:14:33;17.83;;;10.23;;
6344;SDS011;3205;42.666;23.264;2023-05-10T14:16:59;12.93;;;9.50;;
6344;SDS011;3205;42.666;23.264;2023-05-10T14:19:25;11.20;;;8.97;;
6344;SDS011;3205;42.666;23.264;2023-05-10T14:21:55;10.03;;;7.43;;
6344;SDS011;3205;42.666;23.264;2023-05-10T14:24:21;10.30;;;7.87;;
6344;SDS011;3205;42.666;23.264;2023-05-10T14:26:47;15.13;;;8.97;;
6344;SDS011;3205;42.666;23.264;2023-05-10T14:29:14;11.67;;;9.03;;
6344;SDS011;3205;42.666;23.264;2023-05-10T14:31:40;9.87;;;8.37;;
6344;SDS011;3205;42.666;23.264;2023-05-10T14:34:06;12.73;;;8.70;;
6344;SDS011;3205;42.666;23.264;2023-05-10T14:36:32;10.20;;;7.67;;
6344;SDS011;3205;42.666;23.264;2023-05-10T14:38:58;12.47;;;8.47;;
6344;SDS011;3205;42.666;23.264;2023-05-10T14:41:24;13.20;;;9.00;;
6344;SDS011;3205;42.666;23.264;2023-05-10T14:43:50;10.53;;;9.17;;
6344;SDS011;3205;42.666;23.264;2023-05-10T14:46:17;12.37;;;8.07;;
6344;SDS011;3205;42.666;23.264;2023-05-10T14:48:43;13.57;;;8.90;;
6344;SDS011;3205;42.666;23.264;2023-05-10T14:51:10;14.47;;;9.03;;
6344;SDS011;3205;42.666;23.264;2023-05-10T14:53:36;13.43;;;9.30;;
6344;SDS011;3205;42.666;23.264;2023-05-10T14:56:02;18.40;;;10.40;;